sensor_id;sensor_type;location;lat;lon;timestamp;P1;durP1;ratioP1;P2;durP2;ratioP2
65535;SDS011;52145;49.342;9.116;2022-08-21T00:01:57;6.13;;;2.47;;
65535;SDS011;52145;49.342;9.116;2022-08-21T00:04:23;7.47;;;2.58;;
65535;SDS011;52145;49.342;9.116;2022-08-21T00:06:49;5.00;;;2.67;;
65535;SDS011;52145;49.342;9.116;2022-08-21T00:09:16;5.53;;;2.50;;
65535;SDS011;52145;49.342;9.116;2022-08-21T00:11:42;5.30;;;2.60;;
65535;SDS011;52145;49.342;9.116;2022-08-21T00:14:08;7.03;;;2.50;;
65535;SDS011;52145;49.342;9.116;2022-08-21T00:16:34;9.25;;;3.22;;
65535;SDS011;52145;49.342;9.116;2022-08-21T00:19:01;7.03;;;3.17;;
65535;SDS011;52145;49.342;9.116;2022-08-21T00:21:26;5.32;;;2.80;;
65535;SDS011;52145;49.342;9.116;2022-08-21T00:23:52;5.65;;;2.83;;
65535;SDS011;52145;49.342;9.116;2022-08-21T00:26:18;4.10;;;2.72;;
65535;SDS011;52145;49.342;9.116;2022-08-21T00:28:43;5.07;;;2.92;;
65535;SDS011;52145;49.342;9.116;2022-08-21T00:31:11;5.07;;;2.72;;
65535;SDS011;52145;49.342;9.116;2022-08-21T00:33:36;4.05;;;2.55;;
65535;SDS011;52145;49.342;9.116;2022-08-21T00:36:02;5.80;;;3.13;;
65535;SDS011;52145;49.342;9.116;2022-08-21T00:38:28;7.25;;;3.00;;
65535;SDS011;52145;49.342;9.116;2022-08-21T00:40:55;4.32;;;2.60;;
65535;SDS011;52145;49.342;9.116;2022-08-21T00:43:25;4.45;;;2.90;;
65535;SDS011;52145;49.342;9.116;2022-08-21T00:45:55;9.18;;;3.50;;
65535;SDS011;52145;49.342;9.116;2022-08-21T00:48:22;4.88;;;2.65;;
65535;SDS011;52145;49.342;9.116;2022-08-21T00:50:49;6.80;;;2.45;;
65535;SDS011;52145;49.342;9.116;2022-08-21T00:53:21;5.07;;;2.60;;
65535;SDS011;52145;49.342;9.116;2022-08-21T00:55:47;6.13;;;3.15;;
65535;SDS011;52145;49.342;9.116;2022-08-21T00:58:13;5.75;;;3.10;;
65535;SDS011;52145;49.342;9.116;2022-08-21T01:00:40;5.85;;;3.22;;
65535;SDS011;52145;49.342;9.116;2022-08-21T01:03:09;5.68;;;3.00;;
65535;SDS011;52145;49.342;9.116;2022-08-21T01:05:37;5.53;;;2.85;;
65535;SDS011;52145;49.342;9.116;2022-08-21T01:08:04;6.40;;;3.13;;
65535;SDS011;52145;49.342;9.116;2022-08-21T01:10:31;6.40;;;3.08;;
65535;SDS011;52145;49.342;9.116;2022-08-21T01:12:56;5.40;;;3.40;;
65535;SDS011;52145;49.342;9.116;2022-08-21T01:15:25;5.45;;;3.35;;
65535;SDS011;52145;49.342;9.116;2022-08-21T01:17:53;5.40;;;3.13;;
65535;SDS011;52145;49.342;9.116;2022-08-21T01:20:19;6.28;;;3.33;;
65535;SDS011;52145;49.342;9.116;2022-08-21T01:22:45;4.35;;;3.03;;
65535;SDS011;52145;49.342;9.116;2022-08-21T01:25:12;4.90;;;3.13;;
65535;SDS011;52145;49.342;9.116;2022-08-21T01:27:40;4.30;;;2.92;;
65535;SDS011;52145;49.342;9.116;2022-08-21T01:30:13;4.90;;;3.30;;
65535;SDS011;52145;49.342;9.116;2022-08-21T01:32:44;7.25;;;3.47;;
65535;SDS011;52145;49.342;9.116;2022-08-21T01:35:12;4.47;;;3.00;;
65535;SDS011;52145;49.342;9.116;2022-08-21T01:37:39;5.13;;;3.28;;
65535;SDS011;52145;49.342;9.116;2022-08-21T01:40:05;6.15;;;3.60;;
65535;SDS011;52145;49.342;9.116;2022-08-21T01:42:31;5.50;;;3.38;;
65535;SDS011;52145;49.342;9.116;2022-08-21T01:44:57;7.75;;;3.35;;
65535;SDS011;52145;49.342;9.116;2022-08-21T01:47:23;8.25;;;3.13;;
65535;SDS011;52145;49.342;9.116;2022-08-21T01:49:48;4.90;;;3.10;;
65535;SDS011;52145;49.342;9.116;2022-08-21T01:52:14;8.15;;;3.45;;
65535;SDS011;52145;49.342;9.116;2022-08-21T01:54:40;7.10;;;3.40;;
65535;SDS011;52145;49.342;9.116;2022-08-21T01:57:06;5.60;;;3.30;;
65535;SDS011;52145;49.342;9.116;2022-08-21T01:59:32;6.70;;;3.75;;
65535;SDS011;52145;49.342;9.116;2022-08-21T02:01:58;6.68;;;3.80;;
65535;SDS011;52145;49.342;9.116;2022-08-21T02:04:24;6.95;;;3.80;;
65535;SDS011;52145;49.342;9.116;2022-08-21T02:06:49;8.07;;;3.80;;
65535;SDS011;52145;49.342;9.116;2022-08-21T02:09:16;4.47;;;3.00;;
65535;SDS011;52145;49.342;9.116;2022-08-21T02:11:42;5.82;;;3.38;;
65535;SDS011;52145;49.342;9.116;2022-08-21T02:14:11;8.50;;;3.80;;
65535;SDS011;52145;49.342;9.116;2022-08-21T02:16:39;5.28;;;3.45;;
65535;SDS011;52145;49.342;9.116;2022-08-21T02:19:05;6.45;;;3.80;;
65535;SDS011;52145;49.342;9.116;2022-08-21T02:21:31;7.90;;;3.55;;
65535;SDS011;52145;49.342;9.116;2022-08-21T02:23:56;5.53;;;3.50;;
65535;SDS011;52145;49.342;9.116;2022-08-21T02:26:22;6.03;;;3.65;;
65535;SDS011;52145;49.342;9.116;2022-08-21T02:28:48;8.77;;;4.30;;
65535;SDS011;52145;49.342;9.116;2022-08-21T02:31:14;7.55;;;3.40;;
65535;SDS011;52145;49.342;9.116;2022-08-21T02:33:39;5.25;;;3.33;;
65535;SDS011;52145;49.342;9.116;2022-08-21T02:36:06;7.88;;;3.63;;
65535;SDS011;52145;49.342;9.116;2022-08-21T02:38:33;6.88;;;3.90;;
65535;SDS011;52145;49.342;9.116;2022-08-21T02:41:03;7.75;;;3.88;;
65535;SDS011;52145;49.342;9.116;2022-08-21T02:43:30;8.05;;;3.50;;
65535;SDS011;52145;49.342;9.116;2022-08-21T02:45:56;7.97;;;3.60;;
65535;SDS011;52145;49.342;9.116;2022-08-21T02:48:24;6.60;;;3.75;;
65535;SDS011;52145;49.342;9.116;2022-08-21T02:50:53;10.90;;;4.00;;
65535;SDS011;52145;49.342;9.116;2022-08-21T02:53:23;8.10;;;4.07;;
65535;SDS011;52145;49.342;9.116;2022-08-21T02:55:50;8.07;;;3.88;;
65535;SDS011;52145;49.342;9.116;2022-08-21T02:58:21;8.02;;;4.25;;
65535;SDS011;52145;49.342;9.116;2022-08-21T03:00:48;7.18;;;3.90;;
65535;SDS011;52145;49.342;9.116;2022-08-21T03:03:14;7.28;;;4.22;;
65535;SDS011;52145;49.342;9.116;2022-08-21T03:05:40;6.97;;;3.80;;
65535;SDS011;52145;49.342;9.116;2022-08-21T03:08:08;8.38;;;3.92;;
65535;SDS011;52145;49.342;9.116;2022-08-21T03:10:36;6.47;;;4.03;;
65535;SDS011;52145;49.342;9.116;2022-08-21T03:13:04;8.57;;;4.28;;
65535;SDS011;52145;49.342;9.116;2022-08-21T03:15:31;7.70;;;4.07;;
65535;SDS011;52145;49.342;9.116;2022-08-21T03:17:57;7.53;;;4.18;;
65535;SDS011;52145;49.342;9.116;2022-08-21T03:20:24;6.82;;;4.15;;
65535;SDS011;52145;49.342;9.116;2022-08-21T03:22:52;6.97;;;4.28;;
65535;SDS011;52145;49.342;9.116;2022-08-21T03:25:19;6.20;;;3.97;;
65535;SDS011;52145;49.342;9.116;2022-08-21T03:27:46;7.70;;;4.18;;
65535;SDS011;52145;49.342;9.116;2022-08-21T03:30:13;7.15;;;3.85;;
65535;SDS011;52145;49.342;9.116;2022-08-21T03:32:39;7.30;;;4.50;;
65535;SDS011;52145;49.342;9.116;2022-08-21T03:35:06;6.72;;;4.60;;
65535;SDS011;52145;49.342;9.116;2022-08-21T03:37:32;6.80;;;4.43;;
65535;SDS011;52145;49.342;9.116;2022-08-21T03:39:57;13.45;;;5.38;;
65535;SDS011;52145;49.342;9.116;2022-08-21T03:42:23;6.47;;;4.10;;
65535;SDS011;52145;49.342;9.116;2022-08-21T03:44:49;8.00;;;4.20;;
65535;SDS011;52145;49.342;9.116;2022-08-21T03:47:14;8.52;;;4.78;;
65535;SDS011;52145;49.342;9.116;2022-08-21T03:49:40;7.25;;;4.10;;
65535;SDS011;52145;49.342;9.116;2022-08-21T03:52:06;6.95;;;4.40;;
65535;SDS011;52145;49.342;9.116;2022-08-21T03:54:32;8.63;;;4.57;;
65535;SDS011;52145;49.342;9.116;2022-08-21T03:56:58;7.00;;;4.57;;
65535;SDS011;52145;49.342;9.116;2022-08-21T03:59:23;8.63;;;4.70;;
65535;SDS011;52145;49.342;9.116;2022-08-21T04:01:56;5.72;;;4.47;;
65535;SDS011;52145;49.342;9.116;2022-08-21T04:04:23;6.10;;;4.10;;
65535;SDS011;52145;49.342;9.116;2022-08-21T04:06:50;7.30;;;4.80;;
65535;SDS011;52145;49.342;9.116;2022-08-21T04:09:16;5.50;;;4.28;;
65535;SDS011;52145;49.342;9.116;2022-08-21T04:11:43;6.55;;;4.45;;
65535;SDS011;52145;49.342;9.116;2022-08-21T04:14:10;8.35;;;4.38;;
65535;SDS011;52145;49.342;9.116;2022-08-21T04:16:35;7.60;;;4.93;;
65535;SDS011;52145;49.342;9.116;2022-08-21T04:19:01;9.25;;;4.47;;
65535;SDS011;52145;49.342;9.116;2022-08-21T04:21:26;6.90;;;4.45;;
65535;SDS011;52145;49.342;9.116;2022-08-21T04:23:54;7.15;;;4.35;;
65535;SDS011;52145;49.342;9.116;2022-08-21T04:26:20;6.55;;;4.45;;
65535;SDS011;52145;49.342;9.116;2022-08-21T04:28:46;6.85;;;4.45;;
65535;SDS011;52145;49.342;9.116;2022-08-21T04:31:11;6.43;;;4.60;;
65535;SDS011;52145;49.342;9.116;2022-08-21T04:33:37;6.38;;;4.60;;
65535;SDS011;52145;49.342;9.116;2022-08-21T04:36:03;8.02;;;4.80;;
65535;SDS011;52145;49.342;9.116;2022-08-21T04:38:29;6.05;;;4.30;;
65535;SDS011;52145;49.342;9.116;2022-08-21T04:40:56;7.97;;;4.50;;
65535;SDS011;52145;49.342;9.116;2022-08-21T04:43:22;6.25;;;4.53;;
65535;SDS011;52145;49.342;9.116;2022-08-21T04:45:48;6.82;;;4.43;;
65535;SDS011;52145;49.342;9.116;2022-08-21T04:48:16;8.02;;;4.20;;
65535;SDS011;52145;49.342;9.116;2022-08-21T04:50:50;8.60;;;4.70;;
65535;SDS011;52145;49.342;9.116;2022-08-21T04:53:18;9.05;;;4.90;;
65535;SDS011;52145;49.342;9.116;2022-08-21T04:55:48;7.22;;;4.63;;
65535;SDS011;52145;49.342;9.116;2022-08-21T04:58:18;6.80;;;4.55;;
65535;SDS011;52145;49.342;9.116;2022-08-21T05:00:45;9.95;;;5.05;;
65535;SDS011;52145;49.342;9.116;2022-08-21T05:03:11;9.05;;;4.35;;
65535;SDS011;52145;49.342;9.116;2022-08-21T05:05:39;7.63;;;4.60;;
65535;SDS011;52145;49.342;9.116;2022-08-21T05:08:05;7.57;;;4.60;;
65535;SDS011;52145;49.342;9.116;2022-08-21T05:10:33;8.02;;;4.60;;
65535;SDS011;52145;49.342;9.116;2022-08-21T05:12:59;7.28;;;4.38;;
65535;SDS011;52145;49.342;9.116;2022-08-21T05:15:25;8.50;;;5.10;;
65535;SDS011;52145;49.342;9.116;2022-08-21T05:17:51;8.52;;;4.57;;
65535;SDS011;52145;49.342;9.116;2022-08-21T05:20:16;8.40;;;4.90;;
65535;SDS011;52145;49.342;9.116;2022-08-21T05:22:42;6.95;;;4.25;;
65535;SDS011;52145;49.342;9.116;2022-08-21T05:25:08;6.88;;;4.50;;
65535;SDS011;52145;49.342;9.116;2022-08-21T05:27:35;8.18;;;5.30;;
65535;SDS011;52145;49.342;9.116;2022-08-21T05:30:02;8.85;;;4.47;;
65535;SDS011;52145;49.342;9.116;2022-08-21T05:32:28;7.65;;;4.60;;
65535;SDS011;52145;49.342;9.116;2022-08-21T05:34:53;6.57;;;4.60;;
65535;SDS011;52145;49.342;9.116;2022-08-21T05:37:19;7.25;;;5.00;;
65535;SDS011;52145;49.342;9.116;2022-08-21T05:39:45;7.18;;;4.45;;
65535;SDS011;52145;49.342;9.116;2022-08-21T05:42:11;7.47;;;4.95;;
65535;SDS011;52145;49.342;9.116;2022-08-21T05:44:36;8.80;;;4.95;;
65535;SDS011;52145;49.342;9.116;2022-08-21T05:47:03;6.50;;;4.68;;
65535;SDS011;52145;49.342;9.116;2022-08-21T05:49:33;6.55;;;4.20;;
65535;SDS011;52145;49.342;9.116;2022-08-21T05:51:59;9.05;;;4.50;;
65535;SDS011;52145;49.342;9.116;2022-08-21T05:54:24;6.95;;;4.78;;
65535;SDS011;52145;49.342;9.116;2022-08-21T05:56:50;10.48;;;5.07;;
65535;SDS011;52145;49.342;9.116;2022-08-21T05:59:16;6.93;;;4.75;;
65535;SDS011;52145;49.342;9.116;2022-08-21T06:01:43;8.88;;;4.90;;
65535;SDS011;52145;49.342;9.116;2022-08-21T06:04:10;8.07;;;4.97;;
65535;SDS011;52145;49.342;9.116;2022-08-21T06:06:36;6.97;;;4.82;;
65535;SDS011;52145;49.342;9.116;2022-08-21T06:09:02;10.68;;;4.70;;
65535;SDS011;52145;49.342;9.116;2022-08-21T06:11:29;7.47;;;4.57;;
65535;SDS011;52145;49.342;9.116;2022-08-21T06:13:54;6.80;;;4.65;;
65535;SDS011;52145;49.342;9.116;2022-08-21T06:16:20;7.28;;;4.78;;
65535;SDS011;52145;49.342;9.116;2022-08-21T06:18:47;7.90;;;4.95;;
65535;SDS011;52145;49.342;9.116;2022-08-21T06:21:13;6.93;;;4.20;;
65535;SDS011;52145;49.342;9.116;2022-08-21T06:23:39;6.15;;;4.40;;
65535;SDS011;52145;49.342;9.116;2022-08-21T06:26:05;7.57;;;4.45;;
65535;SDS011;52145;49.342;9.116;2022-08-21T06:28:33;9.23;;;4.85;;
65535;SDS011;52145;49.342;9.116;2022-08-21T06:30:59;10.25;;;5.13;;
65535;SDS011;52145;49.342;9.116;2022-08-21T06:33:25;9.73;;;4.75;;
65535;SDS011;52145;49.342;9.116;2022-08-21T06:35:51;6.75;;;4.22;;
65535;SDS011;52145;49.342;9.116;2022-08-21T06:38:16;7.68;;;4.30;;
65535;SDS011;52145;49.342;9.116;2022-08-21T06:40:42;8.48;;;4.05;;
65535;SDS011;52145;49.342;9.116;2022-08-21T06:43:09;8.27;;;4.72;;
65535;SDS011;52145;49.342;9.116;2022-08-21T06:45:38;8.25;;;4.55;;
65535;SDS011;52145;49.342;9.116;2022-08-21T06:48:04;7.75;;;4.97;;
65535;SDS011;52145;49.342;9.116;2022-08-21T06:50:32;6.93;;;4.07;;
65535;SDS011;52145;49.342;9.116;2022-08-21T06:53:09;7.13;;;4.40;;
65535;SDS011;52145;49.342;9.116;2022-08-21T06:55:36;7.75;;;4.85;;
65535;SDS011;52145;49.342;9.116;2022-08-21T06:58:03;7.63;;;4.40;;
65535;SDS011;52145;49.342;9.116;2022-08-21T07:00:29;6.65;;;3.65;;
65535;SDS011;52145;49.342;9.116;2022-08-21T07:02:54;6.72;;;3.92;;
65535;SDS011;52145;49.342;9.116;2022-08-21T07:05:20;5.65;;;3.75;;
65535;SDS011;52145;49.342;9.116;2022-08-21T07:07:46;7.57;;;4.57;;
65535;SDS011;52145;49.342;9.116;2022-08-21T07:10:12;13.30;;;4.28;;
65535;SDS011;52145;49.342;9.116;2022-08-21T07:12:39;6.85;;;3.60;;
65535;SDS011;52145;49.342;9.116;2022-08-21T07:15:04;6.10;;;3.97;;
65535;SDS011;52145;49.342;9.116;2022-08-21T07:17:31;6.72;;;3.50;;
65535;SDS011;52145;49.342;9.116;2022-08-21T07:19:57;7.97;;;3.88;;
65535;SDS011;52145;49.342;9.116;2022-08-21T07:22:23;8.45;;;4.43;;
65535;SDS011;52145;49.342;9.116;2022-08-21T07:24:49;7.55;;;3.70;;
65535;SDS011;52145;49.342;9.116;2022-08-21T07:27:14;7.22;;;3.63;;
65535;SDS011;52145;49.342;9.116;2022-08-21T07:29:40;6.13;;;3.47;;
65535;SDS011;52145;49.342;9.116;2022-08-21T07:32:06;7.35;;;4.10;;
65535;SDS011;52145;49.342;9.116;2022-08-21T07:34:31;7.30;;;4.05;;
65535;SDS011;52145;49.342;9.116;2022-08-21T07:36:57;7.75;;;3.92;;
65535;SDS011;52145;49.342;9.116;2022-08-21T07:39:23;7.35;;;3.83;;
65535;SDS011;52145;49.342;9.116;2022-08-21T07:41:49;7.45;;;3.70;;
65535;SDS011;52145;49.342;9.116;2022-08-21T07:44:14;7.53;;;3.65;;
65535;SDS011;52145;49.342;9.116;2022-08-21T07:46:40;6.40;;;3.92;;
65535;SDS011;52145;49.342;9.116;2022-08-21T07:49:05;6.75;;;3.63;;
65535;SDS011;52145;49.342;9.116;2022-08-21T07:51:31;8.38;;;3.67;;
65535;SDS011;52145;49.342;9.116;2022-08-21T07:53:58;8.43;;;3.65;;
65535;SDS011;52145;49.342;9.116;2022-08-21T07:56:25;6.07;;;3.47;;
65535;SDS011;52145;49.342;9.116;2022-08-21T07:58:51;8.20;;;3.72;;
65535;SDS011;52145;49.342;9.116;2022-08-21T08:01:17;6.32;;;4.10;;
65535;SDS011;52145;49.342;9.116;2022-08-21T08:03:43;7.07;;;3.72;;
65535;SDS011;52145;49.342;9.116;2022-08-21T08:06:09;8.00;;;3.40;;
65535;SDS011;52145;49.342;9.116;2022-08-21T08:08:38;7.32;;;3.42;;
65535;SDS011;52145;49.342;9.116;2022-08-21T08:11:04;6.50;;;3.47;;
65535;SDS011;52145;49.342;9.116;2022-08-21T08:13:30;7.45;;;4.00;;
65535;SDS011;52145;49.342;9.116;2022-08-21T08:15:55;7.90;;;3.92;;
65535;SDS011;52145;49.342;9.116;2022-08-21T08:18:21;7.57;;;4.55;;
65535;SDS011;52145;49.342;9.116;2022-08-21T08:20:46;9.15;;;4.32;;
65535;SDS011;52145;49.342;9.116;2022-08-21T08:23:12;6.63;;;3.67;;
65535;SDS011;52145;49.342;9.116;2022-08-21T08:25:39;7.05;;;3.67;;
65535;SDS011;52145;49.342;9.116;2022-08-21T08:28:05;12.43;;;5.28;;
65535;SDS011;52145;49.342;9.116;2022-08-21T08:30:32;9.43;;;4.57;;
65535;SDS011;52145;49.342;9.116;2022-08-21T08:32:58;9.10;;;4.43;;
65535;SDS011;52145;49.342;9.116;2022-08-21T08:35:25;11.40;;;4.68;;
65535;SDS011;52145;49.342;9.116;2022-08-21T08:37:51;6.93;;;3.75;;
65535;SDS011;52145;49.342;9.116;2022-08-21T08:40:22;8.35;;;3.78;;
65535;SDS011;52145;49.342;9.116;2022-08-21T08:42:58;6.78;;;4.78;;
65535;SDS011;52145;49.342;9.116;2022-08-21T08:45:24;7.45;;;3.85;;
65535;SDS011;52145;49.342;9.116;2022-08-21T08:48:01;6.22;;;4.03;;
65535;SDS011;52145;49.342;9.116;2022-08-21T08:53:00;5.47;;;3.40;;
65535;SDS011;52145;49.342;9.116;2022-08-21T08:55:33;8.95;;;4.03;;
65535;SDS011;52145;49.342;9.116;2022-08-21T08:58:02;6.45;;;3.85;;
65535;SDS011;52145;49.342;9.116;2022-08-21T09:00:28;8.60;;;3.70;;
65535;SDS011;52145;49.342;9.116;2022-08-21T09:02:56;7.47;;;3.78;;
65535;SDS011;52145;49.342;9.116;2022-08-21T09:10:47;8.70;;;3.50;;
65535;SDS011;52145;49.342;9.116;2022-08-21T09:21:53;7.80;;;2.85;;
65535;SDS011;52145;49.342;9.116;2022-08-21T09:27:09;7.25;;;3.10;;
65535;SDS011;52145;49.342;9.116;2022-08-21T09:29:38;8.82;;;3.58;;
65535;SDS011;52145;49.342;9.116;2022-08-21T09:32:10;9.13;;;3.08;;
65535;SDS011;52145;49.342;9.116;2022-08-21T09:34:41;7.82;;;3.47;;
65535;SDS011;52145;49.342;9.116;2022-08-21T09:37:15;7.55;;;2.85;;
65535;SDS011;52145;49.342;9.116;2022-08-21T09:39:42;7.25;;;2.67;;
65535;SDS011;52145;49.342;9.116;2022-08-21T09:42:09;8.35;;;2.92;;
65535;SDS011;52145;49.342;9.116;2022-08-21T09:44:37;11.15;;;3.60;;
65535;SDS011;52145;49.342;9.116;2022-08-21T09:47:07;11.38;;;3.75;;
65535;SDS011;52145;49.342;9.116;2022-08-21T09:49:34;9.77;;;2.65;;
65535;SDS011;52145;49.342;9.116;2022-08-21T09:52:02;7.93;;;2.88;;
65535;SDS011;52145;49.342;9.116;2022-08-21T09:54:33;6.97;;;3.15;;
65535;SDS011;52145;49.342;9.116;2022-08-21T09:59:51;8.63;;;2.85;;
65535;SDS011;52145;49.342;9.116;2022-08-21T10:02:28;9.80;;;3.38;;
65535;SDS011;52145;49.342;9.116;2022-08-21T10:05:00;7.43;;;2.97;;
65535;SDS011;52145;49.342;9.116;2022-08-21T10:07:30;10.25;;;3.30;;
65535;SDS011;52145;49.342;9.116;2022-08-21T10:15:41;7.57;;;3.25;;
65535;SDS011;52145;49.342;9.116;2022-08-21T10:20:51;6.28;;;3.10;;
65535;SDS011;52145;49.342;9.116;2022-08-21T10:23:45;7.38;;;3.10;;
65535;SDS011;52145;49.342;9.116;2022-08-21T10:26:28;7.82;;;3.13;;
65535;SDS011;52145;49.342;9.116;2022-08-21T10:32:13;8.40;;;3.10;;
65535;SDS011;52145;49.342;9.116;2022-08-21T10:43:50;7.97;;;3.38;;
65535;SDS011;52145;49.342;9.116;2022-08-21T10:49:02;7.28;;;3.20;;
65535;SDS011;52145;49.342;9.116;2022-08-21T10:57:16;7.97;;;2.83;;
65535;SDS011;52145;49.342;9.116;2022-08-21T10:59:55;8.23;;;3.08;;
65535;SDS011;52145;49.342;9.116;2022-08-21T11:02:27;8.52;;;3.10;;
65535;SDS011;52145;49.342;9.116;2022-08-21T11:04:58;7.38;;;2.95;;
65535;SDS011;52145;49.342;9.116;2022-08-21T11:07:31;7.63;;;3.33;;
65535;SDS011;52145;49.342;9.116;2022-08-21T11:10:02;7.05;;;2.88;;
65535;SDS011;52145;49.342;9.116;2022-08-21T11:12:46;10.13;;;3.17;;
65535;SDS011;52145;49.342;9.116;2022-08-21T11:23:43;7.60;;;2.80;;
65535;SDS011;52145;49.342;9.116;2022-08-21T11:26:15;8.60;;;3.10;;
65535;SDS011;52145;49.342;9.116;2022-08-21T11:28:54;6.75;;;2.70;;
65535;SDS011;52145;49.342;9.116;2022-08-21T11:31:34;7.00;;;3.25;;
65535;SDS011;52145;49.342;9.116;2022-08-21T11:37:16;6.75;;;3.00;;
65535;SDS011;52145;49.342;9.116;2022-08-21T11:43:17;8.02;;;2.72;;
65535;SDS011;52145;49.342;9.116;2022-08-21T11:45:52;6.95;;;3.03;;
65535;SDS011;52145;49.342;9.116;2022-08-21T11:48:37;6.97;;;3.25;;
65535;SDS011;52145;49.342;9.116;2022-08-21T11:51:22;6.57;;;2.60;;
65535;SDS011;52145;49.342;9.116;2022-08-21T11:56:37;7.15;;;3.00;;
65535;SDS011;52145;49.342;9.116;2022-08-21T11:59:36;8.85;;;3.40;;
65535;SDS011;52145;49.342;9.116;2022-08-21T12:02:05;8.10;;;3.42;;
65535;SDS011;52145;49.342;9.116;2022-08-21T12:04:44;7.60;;;3.13;;
65535;SDS011;52145;49.342;9.116;2022-08-21T12:07:14;6.97;;;3.03;;
65535;SDS011;52145;49.342;9.116;2022-08-21T12:09:51;7.78;;;2.63;;
65535;SDS011;52145;49.342;9.116;2022-08-21T12:17:52;6.28;;;3.25;;
65535;SDS011;52145;49.342;9.116;2022-08-21T12:20:32;8.20;;;2.97;;
65535;SDS011;52145;49.342;9.116;2022-08-21T12:23:05;6.93;;;2.70;;
65535;SDS011;52145;49.342;9.116;2022-08-21T12:28:09;10.25;;;5.80;;
65535;SDS011;52145;49.342;9.116;2022-08-21T12:30:38;14.30;;;8.98;;
65535;SDS011;52145;49.342;9.116;2022-08-21T12:33:16;6.60;;;3.63;;
65535;SDS011;52145;49.342;9.116;2022-08-21T12:35:46;7.32;;;3.55;;
65535;SDS011;52145;49.342;9.116;2022-08-21T12:38:26;6.88;;;3.25;;
65535;SDS011;52145;49.342;9.116;2022-08-21T12:41:05;8.15;;;3.38;;
65535;SDS011;52145;49.342;9.116;2022-08-21T12:43:37;5.60;;;2.60;;
65535;SDS011;52145;49.342;9.116;2022-08-21T12:46:15;6.18;;;3.47;;
65535;SDS011;52145;49.342;9.116;2022-08-21T12:48:54;6.78;;;2.97;;
65535;SDS011;52145;49.342;9.116;2022-08-21T12:51:32;7.60;;;2.85;;
65535;SDS011;52145;49.342;9.116;2022-08-21T12:54:10;5.35;;;2.80;;
65535;SDS011;52145;49.342;9.116;2022-08-21T12:56:55;6.15;;;2.83;;
65535;SDS011;52145;49.342;9.116;2022-08-21T12:59:22;5.97;;;2.80;;
65535;SDS011;52145;49.342;9.116;2022-08-21T13:01:48;4.72;;;2.55;;
65535;SDS011;52145;49.342;9.116;2022-08-21T13:04:21;6.63;;;3.00;;
65535;SDS011;52145;49.342;9.116;2022-08-21T13:06:56;5.97;;;2.72;;
65535;SDS011;52145;49.342;9.116;2022-08-21T13:09:26;5.28;;;2.38;;
65535;SDS011;52145;49.342;9.116;2022-08-21T13:11:54;6.30;;;3.00;;
65535;SDS011;52145;49.342;9.116;2022-08-21T13:17:17;6.70;;;2.72;;
65535;SDS011;52145;49.342;9.116;2022-08-21T13:19:55;5.78;;;2.72;;
65535;SDS011;52145;49.342;9.116;2022-08-21T13:22:23;4.90;;;2.72;;
65535;SDS011;52145;49.342;9.116;2022-08-21T13:24:49;5.75;;;2.70;;
65535;SDS011;52145;49.342;9.116;2022-08-21T13:27:22;3.85;;;2.30;;
65535;SDS011;52145;49.342;9.116;2022-08-21T13:30:13;6.88;;;2.83;;
65535;SDS011;52145;49.342;9.116;2022-08-21T13:32:44;4.85;;;2.50;;
65535;SDS011;52145;49.342;9.116;2022-08-21T13:35:14;4.07;;;2.35;;
65535;SDS011;52145;49.342;9.116;2022-08-21T13:37:44;5.55;;;2.60;;
65535;SDS011;52145;49.342;9.116;2022-08-21T13:40:13;6.88;;;2.50;;
65535;SDS011;52145;49.342;9.116;2022-08-21T13:42:43;5.90;;;2.70;;
65535;SDS011;52145;49.342;9.116;2022-08-21T13:45:16;5.63;;;2.83;;
65535;SDS011;52145;49.342;9.116;2022-08-21T13:47:46;6.70;;;3.10;;
65535;SDS011;52145;49.342;9.116;2022-08-21T13:50:13;5.20;;;2.90;;
65535;SDS011;52145;49.342;9.116;2022-08-21T13:53:00;7.00;;;3.55;;
65535;SDS011;52145;49.342;9.116;2022-08-21T13:55:35;4.97;;;2.58;;
65535;SDS011;52145;49.342;9.116;2022-08-21T13:58:05;3.78;;;2.60;;
65535;SDS011;52145;49.342;9.116;2022-08-21T14:00:32;6.22;;;2.65;;
65535;SDS011;52145;49.342;9.116;2022-08-21T14:03:05;5.65;;;2.47;;
65535;SDS011;52145;49.342;9.116;2022-08-21T14:05:35;5.43;;;2.55;;
65535;SDS011;52145;49.342;9.116;2022-08-21T14:10:42;6.18;;;3.30;;
65535;SDS011;52145;49.342;9.116;2022-08-21T14:13:20;5.32;;;2.88;;
65535;SDS011;52145;49.342;9.116;2022-08-21T14:15:55;4.20;;;2.40;;
65535;SDS011;52145;49.342;9.116;2022-08-21T14:18:23;5.18;;;2.05;;
65535;SDS011;52145;49.342;9.116;2022-08-21T14:20:51;5.20;;;2.20;;
65535;SDS011;52145;49.342;9.116;2022-08-21T14:23:27;5.50;;;2.53;;
65535;SDS011;52145;49.342;9.116;2022-08-21T14:25:53;5.25;;;2.60;;
65535;SDS011;52145;49.342;9.116;2022-08-21T14:28:26;4.95;;;2.35;;
65535;SDS011;52145;49.342;9.116;2022-08-21T14:30:57;5.97;;;2.65;;
65535;SDS011;52145;49.342;9.116;2022-08-21T14:33:30;4.78;;;2.50;;
65535;SDS011;52145;49.342;9.116;2022-08-21T14:35:58;9.25;;;2.95;;
65535;SDS011;52145;49.342;9.116;2022-08-21T14:38:26;4.97;;;2.50;;
65535;SDS011;52145;49.342;9.116;2022-08-21T14:40:54;4.38;;;2.58;;
65535;SDS011;52145;49.342;9.116;2022-08-21T14:43:22;6.53;;;2.90;;
65535;SDS011;52145;49.342;9.116;2022-08-21T14:45:50;5.97;;;2.45;;
65535;SDS011;52145;49.342;9.116;2022-08-21T14:48:16;4.22;;;2.40;;
65535;SDS011;52145;49.342;9.116;2022-08-21T14:50:42;7.13;;;2.40;;
65535;SDS011;52145;49.342;9.116;2022-08-21T14:53:07;5.43;;;2.45;;
65535;SDS011;52145;49.342;9.116;2022-08-21T14:55:33;5.00;;;2.38;;
65535;SDS011;52145;49.342;9.116;2022-08-21T14:58:18;5.70;;;2.30;;
65535;SDS011;52145;49.342;9.116;2022-08-21T15:00:44;3.97;;;2.30;;
65535;SDS011;52145;49.342;9.116;2022-08-21T15:03:10;3.90;;;2.50;;
65535;SDS011;52145;49.342;9.116;2022-08-21T15:05:35;5.00;;;3.17;;
65535;SDS011;52145;49.342;9.116;2022-08-21T15:08:01;4.57;;;2.67;;
65535;SDS011;52145;49.342;9.116;2022-08-21T15:10:27;7.18;;;2.60;;
65535;SDS011;52145;49.342;9.116;2022-08-21T15:12:57;5.60;;;2.88;;
65535;SDS011;52145;49.342;9.116;2022-08-21T15:15:23;4.03;;;2.35;;
65535;SDS011;52145;49.342;9.116;2022-08-21T15:17:48;4.93;;;2.38;;
65535;SDS011;52145;49.342;9.116;2022-08-21T15:20:14;5.10;;;2.55;;
65535;SDS011;52145;49.342;9.116;2022-08-21T15:22:40;6.13;;;2.50;;
65535;SDS011;52145;49.342;9.116;2022-08-21T15:25:05;5.00;;;2.70;;
65535;SDS011;52145;49.342;9.116;2022-08-21T15:27:31;5.55;;;2.70;;
65535;SDS011;52145;49.342;9.116;2022-08-21T15:29:57;5.45;;;2.88;;
65535;SDS011;52145;49.342;9.116;2022-08-21T15:32:24;4.60;;;2.28;;
65535;SDS011;52145;49.342;9.116;2022-08-21T15:34:52;4.45;;;2.65;;
65535;SDS011;52145;49.342;9.116;2022-08-21T15:37:19;4.57;;;2.45;;
65535;SDS011;52145;49.342;9.116;2022-08-21T15:39:45;4.43;;;2.38;;
65535;SDS011;52145;49.342;9.116;2022-08-21T15:42:11;6.90;;;2.47;;
65535;SDS011;52145;49.342;9.116;2022-08-21T15:44:41;4.93;;;2.60;;
65535;SDS011;52145;49.342;9.116;2022-08-21T15:47:12;6.03;;;2.45;;
65535;SDS011;52145;49.342;9.116;2022-08-21T15:49:43;3.33;;;2.35;;
65535;SDS011;52145;49.342;9.116;2022-08-21T15:52:19;3.30;;;2.30;;
65535;SDS011;52145;49.342;9.116;2022-08-21T15:54:46;4.68;;;2.67;;
65535;SDS011;52145;49.342;9.116;2022-08-21T15:57:12;4.82;;;2.55;;
65535;SDS011;52145;49.342;9.116;2022-08-21T15:59:40;4.97;;;2.60;;
65535;SDS011;52145;49.342;9.116;2022-08-21T16:02:17;4.00;;;2.38;;
65535;SDS011;52145;49.342;9.116;2022-08-21T16:04:46;7.05;;;2.83;;
65535;SDS011;52145;49.342;9.116;2022-08-21T16:07:12;5.63;;;2.50;;
65535;SDS011;52145;49.342;9.116;2022-08-21T16:09:38;5.95;;;2.38;;
65535;SDS011;52145;49.342;9.116;2022-08-21T16:12:04;4.00;;;2.53;;
65535;SDS011;52145;49.342;9.116;2022-08-21T16:14:30;4.95;;;2.45;;
65535;SDS011;52145;49.342;9.116;2022-08-21T16:16:58;3.28;;;2.42;;
65535;SDS011;52145;49.342;9.116;2022-08-21T16:19:24;3.63;;;2.45;;